createdAt,value
2023-05-12T00:00:16.779Z,65
2023-05-12T00:01:56.555Z,65
2023-05-12T00:03:36.307Z,65
2023-05-12T00:05:16.069Z,65
2023-05-12T00:06:55.855Z,65
2023-05-12T00:08:35.614Z,65
2023-05-12T00:10:15.419Z,64
2023-05-12T00:11:55.136Z,65
2023-05-12T00:15:14.643Z,65
2023-05-12T00:16:54.430Z,65
2023-05-12T00:18:34.186Z,65
2023-05-12T00:20:13.936Z,65
2023-05-12T00:21:53.709Z,65
2023-05-12T00:23:33.459Z,65
2023-05-12T00:25:13.290Z,64
2023-05-12T00:26:53.016Z,65
2023-05-12T00:28:32.776Z,64
2023-05-12T00:30:12.538Z,65
2023-05-12T00:31:52.307Z,65
2023-05-12T00:33:32.067Z,65
2023-05-12T00:35:11.832Z,65
2023-05-12T00:36:51.601Z,65
2023-05-12T00:38:31.355Z,64
2023-05-12T00:40:11.118Z,64
2023-05-12T00:41:50.889Z,64
2023-05-12T00:43:30.644Z,64
2023-05-12T00:45:10.428Z,64
2023-05-12T00:46:50.177Z,64
2023-05-12T00:48:29.937Z,64
2023-05-12T00:50:09.719Z,64
2023-05-12T00:51:49.471Z,64
2023-05-12T00:55:09.023Z,64
2023-05-12T00:56:48.758Z,64
2023-05-12T00:58:28.524Z,64
2023-05-12T01:00:08.286Z,64
2023-05-12T01:01:48.054Z,64
2023-05-12T01:03:27.853Z,64
2023-05-12T01:05:07.591Z,64
2023-05-12T01:06:47.344Z,64
2023-05-12T01:08:27.125Z,64
2023-05-12T01:10:06.876Z,64
2023-05-12T01:11:46.652Z,64
2023-05-12T01:13:26.408Z,63
2023-05-12T01:15:06.167Z,63
2023-05-12T01:16:45.939Z,64
2023-05-12T01:18:25.743Z,64
2023-05-12T01:20:05.444Z,64
2023-05-12T01:21:45.219Z,64
2023-05-12T01:23:24.992Z,63
2023-05-12T01:25:04.759Z,64
2023-05-12T01:26:44.519Z,64
2023-05-12T01:28:24.265Z,63
2023-05-12T01:30:04.047Z,63
2023-05-12T01:31:43.808Z,63
2023-05-12T01:33:23.558Z,63
2023-05-12T01:35:03.367Z,63
2023-05-12T01:36:43.098Z,63
2023-05-12T01:38:22.864Z,63
2023-05-12T01:40:02.618Z,63
2023-05-12T01:41:42.396Z,63
2023-05-12T01:43:22.143Z,63
2023-05-12T01:45:01.951Z,63
2023-05-12T01:46:41.685Z,63
2023-05-12T01:48:21.431Z,63
2023-05-12T01:50:01.208Z,63
2023-05-12T01:51:40.976Z,63
2023-05-12T01:53:20.837Z,62
2023-05-12T01:55:00.488Z,62
2023-05-12T01:56:40.273Z,63
2023-05-12T01:58:20.028Z,62
2023-05-12T02:01:39.559Z,62
2023-05-12T02:03:19.341Z,62
2023-05-12T02:04:59.072Z,62
2023-05-12T02:06:38.841Z,62
2023-05-12T02:08:18.597Z,62
2023-05-12T02:09:58.377Z,62
2023-05-12T02:11:38.151Z,62
2023-05-12T02:13:17.886Z,62
2023-05-12T02:14:57.654Z,62
2023-05-12T02:16:37.420Z,61
2023-05-12T02:18:17.180Z,61
2023-05-12T02:19:56.951Z,61
2023-05-12T02:21:36.726Z,62
2023-05-12T02:23:16.537Z,62
2023-05-12T02:24:56.256Z,62
2023-05-12T02:26:35.995Z,61
2023-05-12T02:28:15.808Z,61
2023-05-12T02:29:55.541Z,61
2023-05-12T02:31:35.322Z,61
2023-05-12T02:33:15.059Z,61
2023-05-12T02:34:54.819Z,61
2023-05-12T02:36:34.604Z,61
2023-05-12T02:38:14.353Z,61
2023-05-12T02:39:54.105Z,61
2023-05-12T02:41:33.896Z,61
2023-05-12T02:43:13.686Z,61
2023-05-12T02:44:53.427Z,61
2023-05-12T02:46:33.167Z,61
2023-05-12T02:48:12.936Z,61
2023-05-12T02:49:52.696Z,61
2023-05-12T02:51:32.484Z,61
2023-05-12T02:53:12.241Z,61
2023-05-12T02:54:51.999Z,61
2023-05-12T02:56:31.773Z,61
2023-05-12T02:58:11.571Z,61
2023-05-12T02:59:51.297Z,61
2023-05-12T03:01:31.059Z,61
2023-05-12T03:03:10.818Z,61
2023-05-12T03:04:50.589Z,61
2023-05-12T03:06:30.343Z,61
2023-05-12T03:08:10.102Z,61
2023-05-12T03:09:49.879Z,61
2023-05-12T03:11:29.634Z,61
2023-05-12T03:13:09.404Z,61
2023-05-12T03:14:49.161Z,61
2023-05-12T03:16:28.934Z,61
2023-05-12T03:18:08.699Z,60
2023-05-12T03:19:48.454Z,61
2023-05-12T03:21:28.225Z,61
2023-05-12T03:23:07.981Z,61
2023-05-12T03:24:47.746Z,61
2023-05-12T03:26:27.513Z,61
2023-05-12T03:28:07.272Z,61
2023-05-12T03:29:47.049Z,62
2023-05-12T03:31:26.821Z,62
2023-05-12T03:33:06.572Z,61
2023-05-12T03:34:46.325Z,61
2023-05-12T03:36:26.099Z,61
2023-05-12T03:38:05.856Z,61
2023-05-12T03:39:45.618Z,61
2023-05-12T03:41:25.381Z,61
2023-05-12T03:43:05.153Z,61
2023-05-12T03:44:44.923Z,61
2023-05-12T03:46:24.679Z,61
2023-05-12T03:48:04.433Z,62
2023-05-12T03:49:44.205Z,61
2023-05-12T03:51:23.955Z,62
2023-05-12T03:53:03.728Z,62
2023-05-12T03:54:43.508Z,63
2023-05-12T03:56:23.286Z,63
2023-05-12T03:58:03.061Z,63
2023-05-12T03:59:42.816Z,63
2023-05-12T04:01:22.560Z,64
2023-05-12T04:03:02.319Z,65
2023-05-12T04:04:42.074Z,65
2023-05-12T04:06:21.886Z,66
2023-05-12T04:08:01.598Z,68
2023-05-12T04:09:41.370Z,69
2023-05-12T04:11:21.140Z,71
2023-05-12T04:13:00.900Z,72
2023-05-12T04:14:40.656Z,73
2023-05-12T04:16:20.415Z,75
2023-05-12T04:18:00.179Z,77
2023-05-12T04:19:39.977Z,78
2023-05-12T04:21:19.719Z,80
2023-05-12T04:22:59.489Z,84
2023-05-12T04:24:39.236Z,84
2023-05-12T04:26:19.017Z,87
2023-05-12T04:27:58.776Z,88
2023-05-12T04:29:38.538Z,90
2023-05-12T04:31:18.300Z,92
2023-05-12T04:32:58.061Z,94
2023-05-12T04:34:37.835Z,99
2023-05-12T04:36:17.596Z,100
2023-05-12T04:37:57.355Z,100
2023-05-12T04:39:37.232Z,100
2023-05-12T04:41:16.879Z,100
2023-05-12T04:42:56.660Z,100
2023-05-12T04:44:36.431Z,100
2023-05-12T04:46:16.232Z,100
2023-05-12T04:47:55.948Z,100
2023-05-12T04:49:35.726Z,100
2023-05-12T04:51:15.475Z,100
2023-05-12T04:52:55.235Z,100
2023-05-12T04:54:35.021Z,100
2023-05-12T04:56:14.761Z,100
2023-05-12T04:57:54.531Z,100
2023-05-12T04:59:34.284Z,100
2023-05-12T05:01:14.054Z,100
2023-05-12T05:02:53.879Z,100
2023-05-12T05:06:13.368Z,100
2023-05-12T05:07:53.111Z,100
2023-05-12T05:09:32.885Z,100
2023-05-12T05:11:12.663Z,100
2023-05-12T05:14:32.162Z,100
2023-05-12T05:16:11.942Z,100
2023-05-12T05:17:51.704Z,100
2023-05-12T05:19:31.476Z,100
2023-05-12T05:21:11.292Z,100
2023-05-12T05:22:51.063Z,100
2023-05-12T05:24:30.760Z,100
2023-05-12T05:26:10.572Z,100
2023-05-12T05:27:50.367Z,100
2023-05-12T05:29:30.105Z,100
2023-05-12T05:31:09.794Z,99
2023-05-12T05:32:49.662Z,99
2023-05-12T05:34:29.424Z,100
2023-05-12T05:36:09.089Z,100
2023-05-12T05:37:49.055Z,100
2023-05-12T05:39:28.623Z,100
2023-05-12T05:41:08.414Z,99
2023-05-12T05:42:48.153Z,99
2023-05-12T05:44:27.939Z,100
2023-05-12T05:46:07.755Z,100
2023-05-12T05:47:47.483Z,100
2023-05-12T05:49:27.296Z,100
2023-05-12T05:51:07.042Z,100
2023-05-12T05:52:46.824Z,100
2023-05-12T05:54:26.503Z,100
2023-05-12T05:56:06.277Z,100
2023-05-12T05:57:46.114Z,100
2023-05-12T05:59:25.792Z,100
2023-05-12T06:01:05.676Z,100
2023-05-12T06:04:25.221Z,100
2023-05-12T06:06:04.918Z,100
2023-05-12T06:07:44.632Z,100
2023-05-12T06:09:24.519Z,100
2023-05-12T06:11:04.177Z,100
2023-05-12T06:12:44.036Z,100
2023-05-12T06:14:23.724Z,100
2023-05-12T06:16:03.604Z,100
2023-05-12T06:17:43.208Z,100
2023-05-12T06:19:22.960Z,100
2023-05-12T06:21:02.719Z,100
2023-05-12T06:22:42.491Z,100
2023-05-12T06:24:22.244Z,100
2023-05-12T06:26:02.080Z,100
2023-05-12T06:27:41.919Z,100
2023-05-12T06:29:21.563Z,100
2023-05-12T06:31:01.427Z,100
2023-05-12T06:32:41.062Z,100
2023-05-12T06:34:20.865Z,100
2023-05-12T06:36:00.586Z,100
2023-05-12T06:37:40.387Z,100
2023-05-12T06:40:59.977Z,100
2023-05-12T06:42:39.708Z,100
2023-05-12T06:44:19.450Z,100
2023-05-12T06:45:59.175Z,100
2023-05-12T06:47:38.952Z,100
2023-05-12T06:49:18.712Z,100
2023-05-12T06:50:58.473Z,100
2023-05-12T06:52:38.225Z,100
2023-05-12T06:54:18.064Z,100
2023-05-12T06:55:57.785Z,100
2023-05-12T06:57:37.676Z,100
2023-05-12T06:59:17.381Z,100
2023-05-12T07:02:36.903Z,100
2023-05-12T07:07:36.206Z,100
2023-05-12T07:09:15.908Z,100
2023-05-12T07:10:55.642Z,100
2023-05-12T07:12:35.419Z,100
2023-05-12T07:14:15.201Z,100
2023-05-12T07:15:54.944Z,100
2023-05-12T07:17:34.703Z,100
2023-05-12T07:19:14.502Z,100
2023-05-12T07:20:54.307Z,100
2023-05-12T07:22:33.999Z,100
2023-05-12T07:24:13.767Z,100
2023-05-12T07:25:53.545Z,100
2023-05-12T07:27:33.294Z,100
2023-05-12T07:29:13.059Z,100
2023-05-12T07:30:52.805Z,100
2023-05-12T07:32:32.575Z,100
2023-05-12T07:34:12.344Z,100
2023-05-12T07:35:52.092Z,100
2023-05-12T07:39:11.629Z,100
2023-05-12T07:40:51.412Z,100
2023-05-12T07:42:31.156Z,100
2023-05-12T07:44:10.939Z,100
2023-05-12T07:45:50.761Z,100
2023-05-12T07:47:30.456Z,100
2023-05-12T07:49:10.240Z,100
2023-05-12T07:50:49.988Z,100
2023-05-12T07:52:29.748Z,100
2023-05-12T07:54:09.516Z,100
2023-05-12T07:55:49.264Z,100
2023-05-12T07:57:29.031Z,100
2023-05-12T07:59:08.842Z,100
2023-05-12T08:00:48.566Z,100
2023-05-12T08:02:28.380Z,100
2023-05-12T08:04:08.095Z,100
2023-05-12T08:05:47.866Z,100
2023-05-12T08:07:27.631Z,100
2023-05-12T08:09:07.386Z,100
2023-05-12T08:10:47.128Z,100
2023-05-12T08:14:06.680Z,100
2023-05-12T08:15:46.440Z,100
2023-05-12T08:17:26.238Z,100
2023-05-12T08:19:05.980Z,100
2023-05-12T08:20:45.726Z,100
2023-05-12T08:22:25.500Z,100
2023-05-12T08:24:05.269Z,100
2023-05-12T08:25:45.046Z,100
2023-05-12T08:27:24.786Z,100
2023-05-12T08:29:04.540Z,100
2023-05-12T08:30:44.298Z,100
2023-05-12T08:32:24.075Z,100
2023-05-12T08:34:03.856Z,100
2023-05-12T08:35:43.603Z,100
2023-05-12T08:37:23.420Z,100
2023-05-12T08:39:03.155Z,98
2023-05-12T08:40:42.895Z,96
2023-05-12T08:42:22.662Z,98
2023-05-12T08:44:02.409Z,100
2023-05-12T08:45:42.219Z,100
2023-05-12T08:47:21.990Z,100
2023-05-12T08:49:01.726Z,100
2023-05-12T08:50:41.478Z,100
2023-05-12T08:52:21.233Z,99
2023-05-12T08:54:01.009Z,99
2023-05-12T08:55:40.776Z,100
2023-05-12T08:57:20.541Z,99
2023-05-12T08:59:00.369Z,98
2023-05-12T09:00:40.054Z,98
2023-05-12T09:02:19.829Z,97
2023-05-12T09:03:59.681Z,97
2023-05-12T09:05:39.412Z,98
2023-05-12T09:07:19.256Z,98
2023-05-12T09:08:58.951Z,99
2023-05-12T09:10:38.687Z,97
2023-05-12T09:12:18.540Z,98
2023-05-12T09:13:58.185Z,97
2023-05-12T09:15:38.087Z,98
2023-05-12T09:17:17.760Z,97
2023-05-12T09:18:57.500Z,98
2023-05-12T09:20:37.297Z,97
2023-05-12T09:22:17.003Z,98
2023-05-12T09:25:36.530Z,97
2023-05-12T09:27:16.386Z,97
2023-05-12T09:28:56.090Z,98
2023-05-12T09:30:36.000Z,98
2023-05-12T09:32:15.672Z,98
2023-05-12T09:33:55.340Z,99
2023-05-12T09:35:35.133Z,100
2023-05-12T09:37:14.913Z,100
2023-05-12T09:38:54.660Z,98
2023-05-12T09:40:34.403Z,99
2023-05-12T09:42:14.224Z,100
2023-05-12T09:43:53.938Z,99
2023-05-12T09:45:33.738Z,99
2023-05-12T09:47:13.515Z,99
2023-05-12T09:48:53.227Z,100
2023-05-12T09:50:32.992Z,99
2023-05-12T09:52:12.760Z,100
2023-05-12T09:53:52.514Z,100
2023-05-12T09:55:32.316Z,99
2023-05-12T09:57:12.085Z,98
2023-05-12T09:58:51.900Z,98
2023-05-12T10:00:31.569Z,97
2023-05-12T10:02:11.340Z,97
2023-05-12T10:03:51.264Z,98
2023-05-12T10:05:30.878Z,99
2023-05-12T10:07:10.672Z,98
2023-05-12T10:08:50.518Z,98
2023-05-12T10:12:09.955Z,98
2023-05-12T10:13:49.727Z,98
2023-05-12T10:15:29.469Z,98
2023-05-12T10:17:09.258Z,98
2023-05-12T10:18:49.022Z,98
2023-05-12T10:20:28.740Z,98
2023-05-12T10:22:08.531Z,98
2023-05-12T10:23:48.264Z,98
2023-05-12T10:25:28.034Z,98
2023-05-12T10:27:08.032Z,98
2023-05-12T10:28:47.792Z,98
2023-05-12T10:30:27.338Z,100
2023-05-12T10:32:07.245Z,100
2023-05-12T10:33:46.961Z,100
2023-05-12T10:35:26.718Z,100
2023-05-12T10:37:06.513Z,100
2023-05-12T10:38:46.204Z,100
2023-05-12T10:42:05.669Z,98
2023-05-12T10:43:45.432Z,99
2023-05-12T10:45:25.240Z,100
2023-05-12T10:47:05.130Z,98
2023-05-12T10:48:44.811Z,100
2023-05-12T10:50:24.545Z,100
2023-05-12T10:52:04.318Z,100
2023-05-12T10:53:44.072Z,100
2023-05-12T10:55:23.784Z,100
2023-05-12T10:57:03.599Z,100
2023-05-12T10:58:43.324Z,100
2023-05-12T11:00:23.113Z,100
2023-05-12T11:02:02.883Z,99
2023-05-12T11:03:42.611Z,98
2023-05-12T11:05:22.380Z,100
2023-05-12T11:07:02.143Z,100
2023-05-12T11:08:41.947Z,100
2023-05-12T11:10:21.710Z,100
2023-05-12T11:12:01.434Z,100
2023-05-12T11:13:41.191Z,100
2023-05-12T11:15:20.954Z,100
2023-05-12T11:17:00.757Z,100
2023-05-12T11:18:40.531Z,100
2023-05-12T11:20:20.254Z,100
2023-05-12T11:22:00.137Z,100
2023-05-12T11:23:39.798Z,99
2023-05-12T11:25:19.559Z,99
2023-05-12T11:26:59.317Z,98
2023-05-12T11:28:39.080Z,99
2023-05-12T11:30:18.831Z,99
2023-05-12T11:31:58.605Z,100
2023-05-12T11:33:38.367Z,100
2023-05-12T11:35:18.142Z,100
2023-05-12T11:36:57.889Z,100
2023-05-12T11:38:37.659Z,100
2023-05-12T11:40:17.451Z,100
2023-05-12T11:41:57.187Z,100
2023-05-12T11:43:36.960Z,99
2023-05-12T11:45:16.742Z,100
2023-05-12T11:46:56.485Z,99
2023-05-12T11:48:36.266Z,100
2023-05-12T11:50:16.008Z,100
2023-05-12T11:51:55.822Z,100
2023-05-12T11:53:35.555Z,99
2023-05-12T11:55:15.308Z,99
2023-05-12T11:56:55.148Z,98
2023-05-12T11:58:34.917Z,98
2023-05-12T12:00:14.704Z,97
2023-05-12T12:01:54.430Z,98
2023-05-12T12:03:34.197Z,98
2023-05-12T12:05:13.914Z,99
2023-05-12T12:06:53.666Z,100
2023-05-12T12:08:33.431Z,99
2023-05-12T12:10:13.194Z,100
2023-05-12T12:11:52.951Z,100
2023-05-12T12:13:32.752Z,100
2023-05-12T12:15:12.498Z,100
2023-05-12T12:16:52.246Z,99
2023-05-12T12:18:32.062Z,98
2023-05-12T12:20:11.788Z,98
2023-05-12T12:21:51.572Z,99
2023-05-12T12:23:31.297Z,99
2023-05-12T12:25:11.116Z,98
2023-05-12T12:26:50.832Z,99
2023-05-12T12:28:30.714Z,98
2023-05-12T12:30:10.375Z,99
2023-05-12T12:31:50.137Z,99
2023-05-12T12:33:29.923Z,98
2023-05-12T12:35:09.650Z,97
2023-05-12T12:38:29.194Z,100
2023-05-12T12:40:08.963Z,98
2023-05-12T12:41:48.725Z,97
2023-05-12T12:43:28.547Z,100
2023-05-12T12:45:08.234Z,99
2023-05-12T12:46:48.004Z,99
2023-05-12T12:48:27.775Z,98
2023-05-12T12:50:07.604Z,98
2023-05-12T12:51:47.379Z,99
2023-05-12T12:53:27.103Z,99
2023-05-12T12:55:06.852Z,100
2023-05-12T12:56:46.622Z,100
2023-05-12T12:58:26.457Z,100
2023-05-12T13:03:25.662Z,99
2023-05-12T13:05:05.416Z,97
2023-05-12T13:06:45.185Z,96
2023-05-12T13:08:24.964Z,98
2023-05-12T13:10:04.720Z,97
2023-05-12T13:13:24.315Z,98
2023-05-12T13:15:03.987Z,99
2023-05-12T13:16:43.762Z,98
2023-05-12T13:18:23.520Z,100
2023-05-12T13:20:03.298Z,97
2023-05-12T13:21:43.058Z,97
2023-05-12T13:25:02.598Z,100
2023-05-12T13:26:42.353Z,100
2023-05-12T13:28:22.125Z,100
2023-05-12T13:30:01.954Z,97
2023-05-12T13:33:21.415Z,98
2023-05-12T13:35:01.250Z,98
2023-05-12T13:36:40.928Z,98
2023-05-12T13:38:20.709Z,98
2023-05-12T13:40:00.464Z,98
2023-05-12T13:41:40.231Z,100
2023-05-12T13:43:19.994Z,100
2023-05-12T13:44:59.771Z,98
2023-05-12T13:46:39.542Z,100
2023-05-12T13:48:19.277Z,96
2023-05-12T13:49:59.045Z,97
2023-05-12T13:51:38.817Z,97
2023-05-12T13:53:18.586Z,99
2023-05-12T13:54:58.334Z,99
2023-05-12T13:56:38.112Z,99
2023-05-12T13:58:17.862Z,97
2023-05-12T13:59:57.647Z,97
2023-05-12T14:01:37.403Z,97
2023-05-12T14:03:17.153Z,100
2023-05-12T14:04:57.006Z,97
2023-05-12T14:06:36.702Z,100
2023-05-12T14:08:16.452Z,96
2023-05-12T14:09:56.217Z,100
2023-05-12T14:11:35.982Z,97
2023-05-12T14:13:15.738Z,97
2023-05-12T14:14:55.642Z,100
2023-05-12T14:16:35.277Z,99
2023-05-12T14:18:15.037Z,98
2023-05-12T14:19:54.811Z,100
2023-05-12T14:21:34.573Z,100
2023-05-12T14:23:14.355Z,98
2023-05-12T14:24:54.102Z,99
2023-05-12T14:26:33.859Z,98
2023-05-12T14:28:13.670Z,99
2023-05-12T14:29:53.403Z,98
2023-05-12T14:31:33.256Z,97
2023-05-12T14:33:13.050Z,98
2023-05-12T14:34:52.679Z,98
2023-05-12T14:36:32.572Z,100
2023-05-12T14:38:12.256Z,100
2023-05-12T14:39:51.984Z,99
2023-05-12T14:41:31.842Z,98
2023-05-12T14:43:11.497Z,100
2023-05-12T14:44:51.282Z,98
2023-05-12T14:46:31.066Z,100
2023-05-12T14:48:10.802Z,100
2023-05-12T14:49:50.668Z,98
2023-05-12T14:51:30.415Z,98
2023-05-12T14:53:10.116Z,99
2023-05-12T14:54:49.852Z,100
2023-05-12T14:56:29.765Z,97
2023-05-12T14:58:09.414Z,100
2023-05-12T14:59:49.152Z,97
2023-05-12T15:03:08.730Z,99
2023-05-12T15:04:48.476Z,98
2023-05-12T15:06:28.212Z,97
2023-05-12T15:08:08.134Z,100
2023-05-12T15:11:27.491Z,98
2023-05-12T15:13:07.454Z,98
2023-05-12T15:14:47.059Z,98
2023-05-12T15:16:26.975Z,98
2023-05-12T15:18:06.728Z,98
2023-05-12T15:19:46.515Z,99
2023-05-12T15:21:26.323Z,99
2023-05-12T15:23:06.094Z,98
2023-05-12T15:24:45.842Z,98
2023-05-12T15:26:25.537Z,98
2023-05-12T15:28:05.315Z,98
2023-05-12T15:29:45.065Z,98
2023-05-12T15:31:24.715Z,98
2023-05-12T15:33:04.644Z,98
2023-05-12T15:34:44.337Z,97
2023-05-12T15:36:24.049Z,98
2023-05-12T15:38:03.952Z,99
2023-05-12T15:39:43.672Z,100
2023-05-12T15:43:03.246Z,98
2023-05-12T15:44:42.928Z,98
2023-05-12T15:46:22.637Z,98
2023-05-12T15:48:02.496Z,99
2023-05-12T15:49:42.220Z,98
2023-05-12T15:53:01.798Z,97
2023-05-12T15:54:41.576Z,98
2023-05-12T15:56:21.224Z,100
2023-05-12T15:58:01.062Z,97
2023-05-12T15:59:40.834Z,97
2023-05-12T16:01:20.677Z,100
2023-05-12T16:03:00.191Z,100
2023-05-12T16:04:40.043Z,100
2023-05-12T16:06:19.709Z,100
2023-05-12T16:07:59.582Z,100
2023-05-12T16:09:39.460Z,98
2023-05-12T16:11:19.095Z,98
2023-05-12T16:12:58.934Z,100
2023-05-12T16:14:38.620Z,100
2023-05-12T16:16:18.321Z,98
2023-05-12T16:17:58.114Z,100
2023-05-12T16:19:37.830Z,100
2023-05-12T16:21:17.593Z,98
2023-05-12T16:22:57.365Z,99
2023-05-12T16:24:37.137Z,99
2023-05-12T16:26:16.959Z,100
2023-05-12T16:27:56.656Z,99
2023-05-12T16:29:36.411Z,100
2023-05-12T16:31:16.273Z,98
2023-05-12T16:32:55.963Z,96
2023-05-12T16:34:35.808Z,98
2023-05-12T16:36:15.611Z,98
2023-05-12T16:37:55.232Z,98
2023-05-12T16:39:35.086Z,98
2023-05-12T16:42:54.548Z,96
2023-05-12T16:44:34.342Z,99
2023-05-12T16:46:14.202Z,100
2023-05-12T16:47:53.839Z,100
2023-05-12T16:49:33.597Z,100
2023-05-12T16:51:13.482Z,100
2023-05-12T16:52:53.106Z,100
2023-05-12T16:54:32.889Z,100
2023-05-12T16:56:12.799Z,100
2023-05-12T16:57:52.516Z,100
2023-05-12T16:59:32.214Z,100
2023-05-12T17:01:11.930Z,100
2023-05-12T17:02:51.691Z,100
2023-05-12T17:04:31.514Z,100
2023-05-12T17:06:11.223Z,98
2023-05-12T17:07:51.052Z,100
2023-05-12T17:09:30.865Z,100
2023-05-12T17:11:10.518Z,100
2023-05-12T17:12:50.326Z,100
2023-05-12T17:14:30.086Z,97
2023-05-12T17:16:09.804Z,100
2023-05-12T17:17:49.722Z,100
2023-05-12T17:19:29.360Z,99
2023-05-12T17:21:09.278Z,96
2023-05-12T17:22:49.044Z,99
2023-05-12T17:24:28.804Z,96
2023-05-12T17:26:08.404Z,100
2023-05-12T17:27:48.207Z,100
2023-05-12T17:29:28.045Z,98
2023-05-12T17:31:07.758Z,100
2023-05-12T17:32:47.455Z,100
2023-05-12T17:34:27.251Z,100
2023-05-12T17:36:06.994Z,100
2023-05-12T17:37:46.761Z,100
2023-05-12T17:39:26.674Z,100
2023-05-12T17:41:06.264Z,100
2023-05-12T17:42:46.029Z,97
2023-05-12T17:44:25.895Z,100
2023-05-12T17:46:05.747Z,98
2023-05-12T17:47:45.355Z,100
2023-05-12T17:49:25.081Z,99
2023-05-12T17:52:44.748Z,100
2023-05-12T17:54:24.375Z,100
2023-05-12T17:56:04.145Z,98
2023-05-12T17:57:43.926Z,100
2023-05-12T17:59:23.853Z,99
2023-05-12T18:01:03.641Z,100
2023-05-12T18:02:43.326Z,98
2023-05-12T18:06:02.985Z,100
2023-05-12T18:07:42.663Z,100
2023-05-12T18:09:22.457Z,100
2023-05-12T18:11:02.206Z,99
2023-05-12T18:12:41.976Z,100
2023-05-12T18:14:21.552Z,99
2023-05-12T18:16:01.516Z,100
2023-05-12T18:17:41.256Z,100
2023-05-12T18:19:20.990Z,100
2023-05-12T18:21:00.837Z,100
2023-05-12T18:22:40.572Z,100
2023-05-12T18:24:20.338Z,100
2023-05-12T18:26:00.067Z,98
2023-05-12T18:27:39.788Z,93
2023-05-12T18:29:19.628Z,83
2023-05-12T18:30:59.393Z,81
2023-05-12T18:32:39.165Z,79
2023-05-12T18:34:19.005Z,79
2023-05-12T18:35:58.774Z,78
2023-05-12T18:40:58.031Z,76
2023-05-12T18:42:37.730Z,75
2023-05-12T18:44:17.486Z,75
2023-05-12T18:45:57.379Z,74
2023-05-12T18:47:37.025Z,74
2023-05-12T18:49:16.867Z,73
2023-05-12T18:50:56.593Z,73
2023-05-12T18:52:36.370Z,73
2023-05-12T18:54:16.082Z,72
2023-05-12T18:55:55.827Z,72
2023-05-12T18:57:35.663Z,72
2023-05-12T18:59:15.332Z,72
2023-05-12T19:00:55.063Z,71
2023-05-12T19:02:34.926Z,71
2023-05-12T19:04:14.619Z,71
2023-05-12T19:05:54.358Z,71
2023-05-12T19:07:34.186Z,71
2023-05-12T19:09:14.016Z,71
2023-05-12T19:10:53.708Z,70
2023-05-12T19:12:33.402Z,70
2023-05-12T19:14:13.263Z,70
2023-05-12T19:15:53.115Z,70
2023-05-12T19:17:32.824Z,70
2023-05-12T19:19:12.536Z,70
2023-05-12T19:22:32.016Z,70
2023-05-12T19:24:11.810Z,70
2023-05-12T19:25:51.540Z,70
2023-05-12T19:27:31.286Z,70
2023-05-12T19:29:11.061Z,70
2023-05-12T19:30:50.822Z,70
2023-05-12T19:32:30.722Z,70
2023-05-12T19:34:10.376Z,70
2023-05-12T19:35:50.224Z,70
2023-05-12T19:37:29.960Z,70
2023-05-12T19:39:09.715Z,70
2023-05-12T19:40:49.393Z,70
2023-05-12T19:42:29.184Z,70
2023-05-12T19:44:08.929Z,69
2023-05-12T19:45:48.728Z,70
2023-05-12T19:47:28.492Z,70
2023-05-12T19:49:08.260Z,69
2023-05-12T19:50:48.044Z,69
2023-05-12T19:52:27.748Z,70
2023-05-12T19:54:07.666Z,70
2023-05-12T19:55:47.275Z,70
2023-05-12T19:59:06.917Z,69
2023-05-12T20:00:46.627Z,69
2023-05-12T20:02:26.445Z,69
2023-05-12T20:04:06.116Z,69
2023-05-12T20:05:45.891Z,70
2023-05-12T20:07:25.697Z,69
2023-05-12T20:09:05.527Z,68
2023-05-12T20:10:45.180Z,68
2023-05-12T20:12:24.905Z,69
2023-05-12T20:14:04.676Z,69
2023-05-12T20:15:44.455Z,69
2023-05-12T20:17:24.204Z,69
2023-05-12T20:22:23.515Z,69
2023-05-12T20:24:03.301Z,69
2023-05-12T20:25:43.041Z,69
2023-05-12T20:29:02.600Z,69
2023-05-12T20:30:42.381Z,69
2023-05-12T20:32:22.158Z,69
2023-05-12T20:34:01.860Z,69
2023-05-12T20:35:41.640Z,69
2023-05-12T20:37:21.365Z,69
2023-05-12T20:42:20.669Z,69
2023-05-12T20:44:00.435Z,69
2023-05-12T20:45:40.238Z,69
2023-05-12T20:47:20.043Z,68
2023-05-12T20:48:59.733Z,68
2023-05-12T20:52:19.264Z,68
2023-05-12T20:53:59.023Z,68
2023-05-12T20:55:38.779Z,68
2023-05-12T20:57:18.694Z,68
2023-05-12T20:58:58.357Z,68
2023-05-12T21:00:38.086Z,68
2023-05-12T21:02:17.831Z,68
2023-05-12T21:03:57.615Z,68
2023-05-12T21:05:37.448Z,68
2023-05-12T21:08:56.947Z,68
2023-05-12T21:10:36.662Z,68
2023-05-12T21:12:16.426Z,68
2023-05-12T21:13:56.239Z,68
2023-05-12T21:15:35.948Z,68
2023-05-12T21:17:15.741Z,68
2023-05-12T21:18:55.524Z,68
2023-05-12T21:20:35.244Z,68
2023-05-12T21:22:15.014Z,68
2023-05-12T21:23:54.808Z,68
2023-05-12T21:25:34.539Z,68
2023-05-12T21:27:14.305Z,68
2023-05-12T21:28:54.049Z,68
2023-05-12T21:30:33.824Z,68
2023-05-12T21:32:13.576Z,68
2023-05-12T21:33:53.380Z,68
2023-05-12T21:35:33.204Z,68
2023-05-12T21:37:12.879Z,68
2023-05-12T21:38:52.629Z,68
2023-05-12T21:40:32.401Z,68
2023-05-12T21:43:51.951Z,67
2023-05-12T21:45:31.750Z,67
2023-05-12T21:47:11.452Z,67
2023-05-12T21:48:51.258Z,67
2023-05-12T21:50:31.094Z,67
2023-05-12T21:52:10.767Z,67
2023-05-12T21:53:50.520Z,67
2023-05-12T21:55:30.275Z,67
2023-05-12T21:57:10.038Z,67
2023-05-12T21:58:49.806Z,67
2023-05-12T22:00:29.597Z,67
2023-05-12T22:02:09.333Z,67
2023-05-12T22:03:49.194Z,67
2023-05-12T22:05:28.875Z,67
2023-05-12T22:08:48.555Z,67
2023-05-12T22:12:07.911Z,67
2023-05-12T22:13:47.721Z,67
2023-05-12T22:15:27.447Z,67
2023-05-12T22:17:07.254Z,67
2023-05-12T22:18:47.056Z,67
2023-05-12T22:20:26.744Z,67
2023-05-12T22:22:06.518Z,67
2023-05-12T22:25:26.037Z,67
2023-05-12T22:27:05.806Z,67
2023-05-12T22:28:45.566Z,66
2023-05-12T22:32:05.089Z,67
2023-05-12T22:33:44.839Z,67
2023-05-12T22:35:24.613Z,67
2023-05-12T22:38:44.147Z,66
2023-05-12T22:40:23.972Z,66
2023-05-12T22:42:03.684Z,66
2023-05-12T22:43:43.483Z,66
2023-05-12T22:45:23.232Z,66
2023-05-12T22:47:02.989Z,66
2023-05-12T22:50:22.507Z,66
2023-05-12T22:52:02.273Z,66
2023-05-12T22:55:21.805Z,66
2023-05-12T22:57:01.550Z,66
2023-05-12T22:58:41.396Z,66
2023-05-12T23:02:00.892Z,66
2023-05-12T23:03:40.601Z,66
2023-05-12T23:08:39.968Z,66
2023-05-12T23:11:59.420Z,65
2023-05-12T23:13:39.208Z,66
2023-05-12T23:15:18.960Z,66
2023-05-12T23:16:58.757Z,66
2023-05-12T23:18:38.476Z,66
2023-05-12T23:21:58.039Z,65
2023-05-12T23:23:37.802Z,66
2023-05-12T23:25:17.534Z,65
2023-05-12T23:28:37.147Z,65
2023-05-12T23:30:16.867Z,66
2023-05-12T23:31:56.598Z,65
2023-05-12T23:33:36.427Z,65
2023-05-12T23:35:16.255Z,65
2023-05-12T23:36:55.908Z,65
2023-05-12T23:38:35.810Z,65
2023-05-12T23:40:15.466Z,65
2023-05-12T23:41:55.179Z,65
2023-05-12T23:43:34.987Z,65
2023-05-12T23:45:14.706Z,65
2023-05-12T23:46:54.574Z,65
2023-05-12T23:48:34.244Z,65
2023-05-12T23:50:13.975Z,65
2023-05-12T23:51:53.750Z,65
2023-05-12T23:53:33.573Z,65
2023-05-12T23:55:13.288Z,65
2023-05-12T23:56:53.101Z,65
2023-05-12T23:58:32.806Z,65
